Time;durP1;ratioP1;P1;durP2;ratioP2;P2;SDS_P1;SDS_P2;PMS_P1;PMS_P2;Temp;Humidity;BMP_temperature;BMP_pressure;BME280_temperature;BME280_humidity;BME280_pressure;Samples;Min_cycle;Max_cycle;Signal;HPM_P1;HPM_P2
2024/01/13 00:01:29;;;;;;;11.67;7.37;;;2.70;99.90;;;;;;5037303;28;20122;-65
2024/01/13 00:03:55;;;;;;;11.50;7.43;;;2.70;99.90;;;;;;5038105;28;20052;-65
2024/01/13 00:06:20;;;;;;;10.10;6.77;;;2.80;99.90;;;;;;5040244;28;20496;-65
2024/01/13 00:08:46;;;;;;;10.17;7.43;;;2.70;99.90;;;;;;5036744;28;20037;-65
2024/01/13 00:11:12;;;;;;;12.23;7.03;;;2.70;99.90;;;;;;5035274;28;20045;-64
2024/01/13 00:13:37;;;;;;;10.37;6.50;;;2.70;99.90;;;;;;5039631;28;20367;-64
2024/01/13 00:16:03;;;;;;;10.43;6.57;;;2.70;99.90;;;;;;5045420;28;20033;-65
2024/01/13 00:18:29;;;;;;;10.05;6.53;;;2.70;99.90;;;;;;5041981;28;20052;-64
2024/01/13 00:20:54;;;;;;;8.70;6.03;;;2.80;99.90;;;;;;5038943;28;20037;-64
2024/01/13 00:23:20;;;;;;;8.07;5.57;;;2.80;99.90;;;;;;5038163;28;20075;-64
2024/01/13 00:25:46;;;;;;;12.23;6.50;;;2.80;99.90;;;;;;5043179;28;20747;-64
2024/01/13 00:28:12;;;;;;;13.40;6.20;;;2.80;99.90;;;;;;5037821;28;20291;-65
2024/01/13 00:30:37;;;;;;;11.47;5.87;;;2.80;99.90;;;;;;5041124;28;20068;-64
2024/01/13 00:33:03;;;;;;;14.07;5.53;;;2.80;99.90;;;;;;5038655;28;20061;-64
2024/01/13 00:35:29;;;;;;;14.35;6.38;;;2.80;99.90;;;;;;5059810;28;20041;-64
2024/01/13 00:37:55;;;;;;;15.10;6.83;;;2.80;99.90;;;;;;5055451;28;20037;-64
2024/01/13 00:40:20;;;;;;;10.27;6.37;;;2.80;99.90;;;;;;5045543;28;20398;-65
2024/01/13 00:42:46;;;;;;;8.67;5.57;;;2.70;99.90;;;;;;5042048;28;20037;-65
2024/01/13 00:45:12;;;;;;;11.97;6.37;;;2.70;99.90;;;;;;5042384;28;20068;-65
2024/01/13 00:47:38;;;;;;;9.32;5.45;;;2.70;99.90;;;;;;5041177;28;20393;-65
2024/01/13 00:50:04;;;;;;;9.40;6.10;;;2.70;99.90;;;;;;5044556;28;20075;-65
2024/01/13 00:52:29;;;;;;;11.77;5.72;;;2.70;99.90;;;;;;5043522;28;20116;-64
2024/01/13 00:54:55;;;;;;;10.57;5.40;;;2.70;99.90;;;;;;5043342;28;20470;-64
2024/01/13 00:57:21;;;;;;;6.80;5.13;;;2.70;99.90;;;;;;5043363;28;20037;-64
2024/01/13 00:59:46;;;;;;;7.20;5.10;;;2.70;99.90;;;;;;5043665;28;20068;-65
2024/01/13 01:02:12;;;;;;;9.30;5.03;;;2.70;99.90;;;;;;5040778;28;20032;-65
2024/01/13 01:04:37;;;;;;;10.23;5.63;;;2.60;99.90;;;;;;5041684;28;20284;-65
2024/01/13 01:07:03;;;;;;;9.85;6.13;;;2.70;99.90;;;;;;5042176;28;20047;-64
2024/01/13 01:09:29;;;;;;;10.85;5.45;;;2.70;99.90;;;;;;5036913;28;20033;-65
2024/01/13 01:11:54;;;;;;;18.33;6.00;;;2.70;99.90;;;;;;5041559;28;20041;-65
2024/01/13 01:14:20;;;;;;;9.03;5.33;;;2.70;99.90;;;;;;5044944;28;20524;-66
2024/01/13 01:16:45;;;;;;;11.20;5.30;;;2.70;99.90;;;;;;5041242;28;20128;-65
2024/01/13 01:19:11;;;;;;;13.13;5.50;;;2.70;99.90;;;;;;5041392;28;20032;-65
2024/01/13 01:21:37;;;;;;;12.37;5.60;;;2.70;99.90;;;;;;5039797;28;20453;-65
2024/01/13 01:24:02;;;;;;;7.93;5.17;;;2.70;99.90;;;;;;5040248;28;20045;-65
2024/01/13 01:26:28;;;;;;;12.83;4.97;;;2.70;99.90;;;;;;5040660;28;20037;-65
2024/01/13 01:28:53;;;;;;;7.13;4.87;;;2.70;99.90;;;;;;5051611;28;20272;-65
2024/01/13 01:31:19;;;;;;;9.60;5.03;;;2.70;99.90;;;;;;5041212;28;20049;-65
2024/01/13 01:33:45;;;;;;;8.90;4.33;;;2.70;99.90;;;;;;5043015;28;20059;-65
2024/01/13 01:36:10;;;;;;;8.03;5.30;;;2.70;99.90;;;;;;5039834;28;20157;-65
2024/01/13 01:38:36;;;;;;;6.07;4.17;;;2.80;99.90;;;;;;5038427;28;20067;-65
2024/01/13 01:41:02;;;;;;;8.50;5.07;;;2.70;99.90;;;;;;5039805;28;20033;-65
2024/01/13 01:43:27;;;;;;;8.95;4.82;;;2.80;99.90;;;;;;5040674;28;20037;-65
2024/01/13 01:45:54;;;;;;;7.27;4.47;;;2.80;99.90;;;;;;5039729;28;20455;-65
2024/01/13 01:48:29;;;;;;;8.70;4.57;;;2.80;99.90;;;;;;5039329;28;20029;-65
2024/01/13 01:50:56;;;;;;;9.38;5.25;;;2.80;99.90;;;;;;5040638;28;20102;-65
2024/01/13 01:53:21;;;;;;;11.52;4.82;;;2.80;99.90;;;;;;5043154;28;20116;-65
2024/01/13 01:55:47;;;;;;;9.48;4.93;;;2.80;99.90;;;;;;5039201;28;20502;-65
2024/01/13 01:58:13;;;;;;;8.18;4.22;;;2.80;99.90;;;;;;5037706;28;20136;-65
2024/01/13 02:00:39;;;;;;;13.45;5.22;;;2.80;99.90;;;;;;5041925;28;20041;-65
2024/01/13 02:03:05;;;;;;;5.70;3.58;;;2.80;99.90;;;;;;5037726;28;20065;-65
2024/01/13 02:05:31;;;;;;;8.80;5.65;;;2.80;99.90;;;;;;5041709;28;20044;-65
2024/01/13 02:07:57;;;;;;;6.57;4.97;;;2.80;99.90;;;;;;5042395;28;20037;-65
2024/01/13 02:10:23;;;;;;;7.25;4.70;;;2.80;99.90;;;;;;5040145;28;20289;-65
2024/01/13 02:12:49;;;;;;;6.35;4.43;;;2.80;99.90;;;;;;5042060;28;20045;-65
2024/01/13 02:15:15;;;;;;;6.50;4.47;;;2.80;99.90;;;;;;5040413;28;20051;-65
2024/01/13 02:17:40;;;;;;;9.60;5.73;;;2.80;99.90;;;;;;5047307;28;20276;-65
2024/01/13 02:20:10;;;;;;;9.30;5.17;;;2.90;99.90;;;;;;5045681;28;20410;-65
2024/01/13 02:22:35;;;;;;;8.07;5.75;;;2.80;99.90;;;;;;5045708;28;20346;-65
2024/01/13 02:25:04;;;;;;;10.47;6.37;;;2.80;99.90;;;;;;5042279;28;21135;-65
2024/01/13 02:27:29;;;;;;;11.63;6.80;;;2.80;99.90;;;;;;5038739;28;20099;-65
2024/01/13 02:29:55;;;;;;;10.45;6.80;;;2.80;99.90;;;;;;5042125;28;20077;-65
2024/01/13 02:32:21;;;;;;;13.15;6.85;;;2.80;99.90;;;;;;5037073;28;20033;-65
2024/01/13 02:34:47;;;;;;;12.85;6.80;;;2.80;99.90;;;;;;5037134;28;20131;-65
2024/01/13 02:37:13;;;;;;;12.18;6.95;;;2.80;99.90;;;;;;5041535;28;20033;-65
2024/01/13 02:39:38;;;;;;;10.70;6.72;;;2.80;99.90;;;;;;5039627;28;20037;-65
2024/01/13 02:42:04;;;;;;;12.03;7.47;;;2.80;99.90;;;;;;5037229;28;20502;-65
2024/01/13 02:44:30;;;;;;;22.05;8.98;;;2.80;99.90;;;;;;5035197;28;20450;-65
2024/01/13 02:46:56;;;;;;;9.30;7.10;;;2.80;99.90;;;;;;5042392;28;20040;-65
2024/01/13 02:49:22;;;;;;;15.85;7.15;;;2.80;99.90;;;;;;5038736;28;20041;-65
2024/01/13 02:51:48;;;;;;;12.90;6.93;;;2.90;99.90;;;;;;5042532;28;20059;-65
2024/01/13 02:54:13;;;;;;;11.27;5.90;;;2.80;99.90;;;;;;5022040;28;20464;-65
2024/01/13 02:56:39;;;;;;;11.47;6.67;;;2.90;99.90;;;;;;5038858;28;20034;-65
2024/01/13 02:59:05;;;;;;;13.63;6.10;;;2.90;99.90;;;;;;5037581;28;20494;-68
2024/01/13 03:01:31;;;;;;;6.45;4.78;;;2.90;99.90;;;;;;5037938;28;20116;-65
2024/01/13 03:03:57;;;;;;;7.70;5.15;;;2.90;99.90;;;;;;5041993;28;20111;-65
2024/01/13 03:06:23;;;;;;;11.02;6.28;;;2.80;99.90;;;;;;5038932;28;20119;-66
2024/01/13 03:08:49;;;;;;;8.55;5.88;;;2.90;99.90;;;;;;5039906;28;20051;-65
2024/01/13 03:11:15;;;;;;;9.73;6.57;;;2.90;99.90;;;;;;5040535;28;20123;-65
2024/01/13 03:13:40;;;;;;;10.13;6.30;;;2.90;99.90;;;;;;5039782;28;20088;-65
2024/01/13 03:16:09;;;;;;;9.83;6.40;;;2.90;99.90;;;;;;5039098;28;20168;-65
2024/01/13 03:18:34;;;;;;;13.35;8.07;;;2.90;99.90;;;;;;5034457;28;20490;-65
2024/01/13 03:21:02;;;;;;;10.63;7.07;;;2.90;99.90;;;;;;5038615;28;20056;-65
2024/01/13 03:23:28;;;;;;;13.18;7.13;;;2.90;99.90;;;;;;5039974;28;20041;-65
2024/01/13 03:25:54;;;;;;;13.00;7.38;;;2.90;99.90;;;;;;5040026;28;20037;-65
2024/01/13 03:28:22;;;;;;;13.50;7.83;;;2.90;99.90;;;;;;5036050;28;20052;-65
2024/01/13 03:30:48;;;;;;;11.75;7.80;;;2.90;99.90;;;;;;5036705;28;20138;-65
2024/01/13 03:33:15;;;;;;;16.45;8.85;;;2.90;99.90;;;;;;5034048;28;20108;-65
2024/01/13 03:35:40;;;;;;;14.43;8.52;;;2.90;99.90;;;;;;5038229;28;20567;-65
2024/01/13 03:38:06;;;;;;;11.73;8.40;;;2.90;99.90;;;;;;5036768;28;20041;-65
2024/01/13 03:40:31;;;;;;;15.07;9.03;;;2.90;99.90;;;;;;5037881;28;20382;-65
2024/01/13 03:42:57;;;;;;;14.53;8.30;;;2.90;99.90;;;;;;5035638;28;20501;-65
2024/01/13 03:45:23;;;;;;;13.20;7.33;;;2.90;99.90;;;;;;5040674;28;20061;-65
2024/01/13 03:47:48;;;;;;;12.57;7.93;;;2.90;99.90;;;;;;5038573;28;20118;-65
2024/01/13 03:50:15;;;;;;;14.50;8.02;;;2.90;99.90;;;;;;5037127;28;20116;-65
2024/01/13 03:52:40;;;;;;;12.82;7.90;;;2.90;99.90;;;;;;5038964;28;20079;-65
2024/01/13 03:55:07;;;;;;;12.65;7.65;;;2.90;99.90;;;;;;5037197;28;20041;-65
2024/01/13 03:57:32;;;;;;;13.15;7.57;;;2.90;99.90;;;;;;5038813;28;20505;-65
2024/01/13 03:59:58;;;;;;;15.33;7.10;;;2.90;99.90;;;;;;5039029;28;20047;-65
2024/01/13 04:02:25;;;;;;;11.17;7.40;;;2.90;99.90;;;;;;5038669;28;20115;-65
2024/01/13 04:04:50;;;;;;;10.32;7.13;;;2.90;99.90;;;;;;5037821;28;20413;-65
2024/01/13 04:07:16;;;;;;;9.20;7.27;;;2.90;99.90;;;;;;5036473;28;20037;-65
2024/01/13 04:09:42;;;;;;;10.57;6.93;;;2.90;99.90;;;;;;5038894;28;20539;-66
2024/01/13 04:12:07;;;;;;;10.07;6.17;;;2.90;99.90;;;;;;5040488;28;20047;-65
2024/01/13 04:14:33;;;;;;;9.97;6.23;;;2.90;99.90;;;;;;5054355;28;20129;-65
2024/01/13 04:16:59;;;;;;;13.73;6.53;;;2.90;99.90;;;;;;5040266;28;20803;-65
2024/01/13 04:19:25;;;;;;;14.95;7.28;;;2.90;99.90;;;;;;5021552;28;20044;-66
2024/01/13 04:21:50;;;;;;;11.83;7.27;;;2.90;99.90;;;;;;5038206;28;20029;-65
2024/01/13 04:24:16;;;;;;;11.93;6.20;;;2.90;99.90;;;;;;5021079;28;20283;-65
2024/01/13 04:26:43;;;;;;;12.43;6.33;;;2.80;99.90;;;;;;5036921;28;20049;-65
2024/01/13 04:29:09;;;;;;;13.98;6.88;;;2.90;99.90;;;;;;5037687;28;20042;-65
2024/01/13 04:31:35;;;;;;;11.27;6.20;;;2.90;99.90;;;;;;5039520;28;20053;-65
2024/01/13 04:34:00;;;;;;;12.67;7.30;;;2.90;99.90;;;;;;5037050;28;20151;-65
2024/01/13 04:36:26;;;;;;;12.07;6.13;;;2.90;99.90;;;;;;5039326;28;20044;-65
2024/01/13 04:38:52;;;;;;;11.90;7.23;;;2.80;99.90;;;;;;5037986;28;20044;-66
2024/01/13 04:41:17;;;;;;;12.50;6.88;;;2.90;99.90;;;;;;5032946;28;20396;-65
2024/01/13 04:43:43;;;;;;;12.23;6.80;;;2.80;99.90;;;;;;5035839;28;20084;-66
2024/01/13 04:46:10;;;;;;;14.30;7.00;;;2.80;99.90;;;;;;5036402;28;20052;-65
2024/01/13 04:48:37;;;;;;;15.25;6.18;;;2.80;99.90;;;;;;5039967;28;20283;-65
2024/01/13 04:51:03;;;;;;;16.00;7.03;;;2.80;99.90;;;;;;5038229;28;20124;-65
2024/01/13 04:53:28;;;;;;;14.27;6.88;;;2.80;99.90;;;;;;5039233;28;20128;-66
2024/01/13 04:55:55;;;;;;;13.85;6.45;;;2.80;99.90;;;;;;5046957;28;20134;-65
2024/01/13 04:58:20;;;;;;;19.63;7.25;;;2.80;99.90;;;;;;5043873;28;20033;-65
2024/01/13 05:00:47;;;;;;;11.30;6.63;;;2.80;99.90;;;;;;5045778;28;20110;-65
2024/01/13 05:03:12;;;;;;;;;;;2.80;99.90;;;;;;5039817;28;20076;-65
2024/01/13 05:05:38;;;;;;;12.98;6.53;;;2.90;99.90;;;;;;5042671;28;20316;-65
2024/01/13 05:08:04;;;;;;;8.77;4.77;;;2.90;99.90;;;;;;5040164;28;20498;-65
2024/01/13 05:10:30;;;;;;;11.00;5.80;;;2.90;99.90;;;;;;5045985;28;20116;-65
2024/01/13 05:12:55;;;;;;;7.15;4.78;;;2.90;99.90;;;;;;5043198;28;20041;-65
2024/01/13 05:15:21;;;;;;;9.73;4.77;;;2.90;99.90;;;;;;5039078;28;20076;-65
2024/01/13 05:17:47;;;;;;;9.80;5.13;;;2.90;99.90;;;;;;5039370;28;20280;-65
2024/01/13 05:20:12;;;;;;;11.57;4.47;;;2.90;99.90;;;;;;5042351;28;20037;-65
2024/01/13 05:22:38;;;;;;;8.73;4.07;;;2.90;99.90;;;;;;5042865;28;20039;-65
2024/01/13 05:25:04;;;;;;;11.00;4.23;;;2.90;99.90;;;;;;5040473;28;20128;-65
2024/01/13 05:27:30;;;;;;;6.72;4.43;;;2.90;99.90;;;;;;5042046;28;20464;-65
2024/01/13 05:29:55;;;;;;;8.00;4.50;;;2.90;99.90;;;;;;5043402;28;20041;-65
2024/01/13 05:32:21;;;;;;;7.43;3.83;;;2.90;99.90;;;;;;5043255;28;20037;-65
2024/01/13 05:34:47;;;;;;;8.00;4.60;;;2.90;99.90;;;;;;5040684;28;20033;-65
2024/01/13 05:37:13;;;;;;;7.53;4.30;;;2.90;99.90;;;;;;5040871;28;20068;-65
2024/01/13 05:39:38;;;;;;;7.97;3.80;;;2.90;99.90;;;;;;5039901;28;20079;-65
2024/01/13 05:42:04;;;;;;;10.77;5.17;;;2.90;99.90;;;;;;5041465;28;20041;-65
2024/01/13 05:44:30;;;;;;;8.95;4.75;;;2.90;99.90;;;;;;5041398;28;20108;-65
2024/01/13 05:46:55;;;;;;;10.73;4.77;;;2.90;99.90;;;;;;5042773;28;20090;-65
2024/01/13 05:49:21;;;;;;;8.97;5.33;;;2.90;99.90;;;;;;5039368;28;20131;-65
2024/01/13 05:51:47;;;;;;;11.97;5.63;;;2.90;99.90;;;;;;5036807;28;20037;-65
2024/01/13 05:54:13;;;;;;;13.90;5.90;;;2.90;99.90;;;;;;5040493;28;20125;-65
2024/01/13 05:56:38;;;;;;;9.82;6.00;;;2.90;99.90;;;;;;5040296;28;20040;-65
2024/01/13 05:59:04;;;;;;;9.70;5.67;;;2.90;99.90;;;;;;5041053;28;20041;-65
2024/01/13 06:01:30;;;;;;;9.80;4.83;;;2.90;99.90;;;;;;5040284;28;20398;-67
2024/01/13 06:03:55;;;;;;;11.52;6.15;;;2.90;99.90;;;;;;5041211;28;20106;-65
2024/01/13 06:06:21;;;;;;;9.10;5.93;;;2.90;99.90;;;;;;5043644;28;20037;-65
2024/01/13 06:08:47;;;;;;;11.27;5.90;;;2.90;99.90;;;;;;5040987;28;20087;-65
2024/01/13 06:11:12;;;;;;;13.43;5.73;;;2.90;99.90;;;;;;5041194;28;20047;-65
2024/01/13 06:13:39;;;;;;;11.90;6.83;;;2.90;99.90;;;;;;5041101;28;20304;-65
2024/01/13 06:16:04;;;;;;;11.82;6.35;;;2.90;99.90;;;;;;5041687;28;20275;-65
2024/01/13 06:18:30;;;;;;;13.97;7.77;;;2.90;99.90;;;;;;5040986;28;20034;-65
2024/01/13 06:20:55;;;;;;;12.20;7.33;;;2.90;99.90;;;;;;5041535;28;20267;-67
2024/01/13 06:23:21;;;;;;;11.83;6.37;;;2.90;99.90;;;;;;5037022;28;20144;-65
2024/01/13 06:25:47;;;;;;;13.83;7.27;;;2.90;99.90;;;;;;5041424;28;20033;-65
2024/01/13 06:28:12;;;;;;;14.50;8.27;;;2.90;99.90;;;;;;5039979;28;20041;-65
2024/01/13 06:30:38;;;;;;;15.23;7.30;;;2.90;99.90;;;;;;5038831;28;20045;-65
2024/01/13 06:33:04;;;;;;;16.53;7.37;;;2.90;99.90;;;;;;5038343;28;20046;-66
2024/01/13 06:35:29;;;;;;;15.00;8.37;;;2.90;99.90;;;;;;5037707;28;20456;-65
2024/01/13 06:37:55;;;;;;;13.83;8.13;;;2.90;99.90;;;;;;5036423;28;20065;-66
2024/01/13 06:40:21;;;;;;;16.27;8.02;;;2.90;99.90;;;;;;5037229;28;20096;-65
2024/01/13 06:42:47;;;;;;;15.13;7.68;;;3.00;99.90;;;;;;5041876;28;20056;-66
2024/01/13 06:45:13;;;;;;;14.57;8.10;;;3.00;99.90;;;;;;5039275;28;20106;-65
2024/01/13 06:47:38;;;;;;;17.67;9.87;;;3.00;99.90;;;;;;5041017;28;20034;-65
2024/01/13 06:50:04;;;;;;;18.13;9.67;;;3.00;99.90;;;;;;5039420;28;20127;-65
2024/01/13 06:52:30;;;;;;;19.33;9.50;;;3.00;99.90;;;;;;5040002;28;20482;-65
2024/01/13 06:54:55;;;;;;;17.63;9.30;;;3.00;99.90;;;;;;5041486;28;20053;-65
2024/01/13 06:57:22;;;;;;;19.93;10.20;;;3.00;99.90;;;;;;5037492;28;20068;-65
2024/01/13 06:59:48;;;;;;;22.63;10.45;;;3.00;99.90;;;;;;5042963;28;20043;-65
2024/01/13 07:02:14;;;;;;;23.42;10.40;;;3.00;99.90;;;;;;5034965;28;20045;-65
2024/01/13 07:04:41;;;;;;;20.58;10.00;;;3.00;99.90;;;;;;5040201;28;20049;-65
2024/01/13 07:07:08;;;;;;;16.80;9.35;;;3.00;99.90;;;;;;5040485;28;20065;-66
2024/01/13 07:09:33;;;;;;;19.23;9.73;;;3.00;99.90;;;;;;5036625;28;20049;-65
2024/01/13 07:11:59;;;;;;;16.37;8.63;;;3.00;99.90;;;;;;5054318;28;20577;-65
2024/01/13 07:14:25;;;;;;;13.20;7.53;;;3.00;99.90;;;;;;5036672;28;20045;-65
2024/01/13 07:16:50;;;;;;;13.85;7.75;;;3.00;99.90;;;;;;5041052;28;20072;-65
2024/01/13 07:19:16;;;;;;;12.90;7.30;;;3.00;99.90;;;;;;5037399;28;20104;-66
2024/01/13 07:21:42;;;;;;;15.17;7.93;;;3.10;99.90;;;;;;5037949;28;20432;-65
2024/01/13 07:24:09;;;;;;;13.93;7.75;;;3.10;99.90;;;;;;5039070;28;20078;-65
2024/01/13 07:26:44;;;;;;;13.63;7.20;;;3.10;99.90;;;;;;5039398;28;20048;-65
2024/01/13 07:29:10;;;;;;;14.35;7.25;;;3.10;99.90;;;;;;5037096;28;20484;-65
2024/01/13 07:31:36;;;;;;;14.85;7.47;;;3.10;99.90;;;;;;5041076;28;20048;-65
2024/01/13 07:34:01;;;;;;;18.13;7.88;;;3.10;99.90;;;;;;5036929;28;20059;-65
2024/01/13 07:36:27;;;;;;;12.45;7.32;;;3.10;99.90;;;;;;5035076;28;20448;-65
2024/01/13 07:38:53;;;;;;;14.88;7.63;;;3.10;99.90;;;;;;5039425;28;20414;-65
2024/01/13 07:41:19;;;;;;;14.90;7.45;;;3.10;99.90;;;;;;5035558;28;20095;-65
2024/01/13 07:43:45;;;;;;;19.13;8.23;;;3.10;99.90;;;;;;5040637;28;20069;-65
2024/01/13 07:46:12;;;;;;;14.35;7.78;;;3.10;99.90;;;;;;5038645;28;20075;-65
2024/01/13 07:48:38;;;;;;;12.13;7.32;;;3.20;99.90;;;;;;5039592;28;20035;-65
2024/01/13 07:51:04;;;;;;;14.68;7.72;;;3.20;99.90;;;;;;5051297;28;20525;-65
2024/01/13 07:53:29;;;;;;;15.70;7.20;;;3.10;99.90;;;;;;5035914;28;20080;-65
2024/01/13 07:55:55;;;;;;;14.60;7.50;;;3.20;99.90;;;;;;5035650;28;20283;-65
2024/01/13 07:58:21;;;;;;;17.77;8.37;;;3.20;99.90;;;;;;5034795;28;20036;-65
2024/01/13 08:00:46;;;;;;;13.17;7.90;;;3.20;99.90;;;;;;5039897;28;20862;-65
2024/01/13 08:03:12;;;;;;;14.00;8.13;;;3.20;99.90;;;;;;5036260;28;20048;-65
2024/01/13 08:05:37;;;;;;;12.63;8.23;;;3.20;99.90;;;;;;5036678;28;20044;-65
2024/01/13 08:08:06;;;;;;;15.63;8.40;;;3.20;99.90;;;;;;5039554;28;20033;-65
2024/01/13 08:10:35;;;;;;;18.67;9.30;;;3.20;99.90;;;;;;5037675;28;20116;-67
2024/01/13 08:13:01;;;;;;;12.57;8.35;;;3.20;99.90;;;;;;5035098;28;20086;-67
2024/01/13 08:15:27;;;;;;;16.85;10.57;;;3.20;99.90;;;;;;5038708;28;20532;-68
2024/01/13 08:17:52;;;;;;;15.50;8.80;;;3.30;99.90;;;;;;5037944;28;20037;-65
2024/01/13 08:20:19;;;;;;;14.65;8.32;;;3.20;99.90;;;;;;5039852;28;20037;-65
2024/01/13 08:22:46;;;;;;;14.60;8.63;;;3.30;99.90;;;;;;5038009;28;20037;-64
2024/01/13 08:25:12;;;;;;;12.98;8.52;;;3.20;99.90;;;;;;5053389;28;20044;-65
2024/01/13 08:27:38;;;;;;;12.23;7.63;;;3.20;99.90;;;;;;5037416;28;20038;-64
2024/01/13 08:30:05;;;;;;;13.60;8.53;;;3.20;99.90;;;;;;5037686;28;20575;-65
2024/01/13 08:32:31;;;;;;;13.63;7.80;;;3.20;99.90;;;;;;5037626;28;20037;-65
2024/01/13 08:34:57;;;;;;;12.65;7.85;;;3.30;99.90;;;;;;5045836;28;20057;-65
2024/01/13 08:37:23;;;;;;;13.23;7.65;;;3.30;99.90;;;;;;5042821;28;20063;-64
2024/01/13 08:39:48;;;;;;;13.47;8.13;;;3.30;99.90;;;;;;5042629;28;21058;-65
2024/01/13 08:42:14;;;;;;;13.48;7.22;;;3.30;99.90;;;;;;5044482;28;20044;-65
2024/01/13 08:44:39;;;;;;;16.50;7.87;;;3.30;99.90;;;;;;5038687;28;20461;-65
2024/01/13 08:47:05;;;;;;;14.83;7.47;;;3.20;99.90;;;;;;5043805;28;20160;-65
2024/01/13 08:49:31;;;;;;;8.97;6.87;;;3.20;99.90;;;;;;5045745;28;20037;-65
2024/01/13 08:51:56;;;;;;;15.53;6.73;;;3.20;99.90;;;;;;5043132;28;20044;-64
2024/01/13 08:54:25;;;;;;;11.13;6.73;;;3.20;99.90;;;;;;5044210;28;20563;-66
2024/01/13 08:56:50;;;;;;;12.40;7.57;;;3.30;99.90;;;;;;5038731;28;20037;-65
2024/01/13 08:59:16;;;;;;;15.17;7.87;;;3.30;99.90;;;;;;5039640;28;20052;-64
2024/01/13 09:01:42;;;;;;;16.33;8.30;;;3.30;99.90;;;;;;5041498;28;20037;-63
2024/01/13 09:04:08;;;;;;;15.63;8.30;;;3.30;99.90;;;;;;5041729;28;20087;-63
2024/01/13 09:06:34;;;;;;;18.73;9.02;;;3.30;99.90;;;;;;5039939;28;20041;-63
2024/01/13 09:09:00;;;;;;;20.20;9.87;;;3.30;99.90;;;;;;5040311;28;20253;-63
2024/01/13 09:11:25;;;;;;;19.77;9.73;;;3.30;99.90;;;;;;5041187;28;20459;-63
2024/01/13 09:13:51;;;;;;;23.73;12.20;;;3.30;99.90;;;;;;5038991;28;20555;-64
2024/01/13 09:16:16;;;;;;;21.60;12.20;;;3.40;99.90;;;;;;5040164;28;20059;-64
2024/01/13 09:18:42;;;;;;;30.27;13.93;;;3.40;99.90;;;;;;5041507;28;20056;-64
2024/01/13 09:21:09;;;;;;;34.53;16.77;;;3.40;99.90;;;;;;5040052;28;20276;-64
2024/01/13 09:23:35;;;;;;;31.58;17.05;;;3.40;99.90;;;;;;5036316;28;20056;-66
2024/01/13 09:26:03;;;;;;;35.58;16.77;;;3.50;99.90;;;;;;5037099;28;20041;-64
2024/01/13 09:28:29;;;;;;;39.10;17.75;;;3.40;99.90;;;;;;5038571;28;20128;-63
2024/01/13 09:30:55;;;;;;;36.87;18.73;;;3.50;99.90;;;;;;5038787;28;20128;-64
2024/01/13 09:33:21;;;;;;;37.47;19.13;;;3.50;99.90;;;;;;5041802;28;20047;-64
2024/01/13 09:35:46;;;;;;;45.17;20.77;;;3.50;99.90;;;;;;5037937;28;20116;-64
2024/01/13 09:38:12;;;;;;;41.40;20.40;;;3.50;99.90;;;;;;5038904;28;20037;-64
2024/01/13 09:40:41;;;;;;;51.20;22.40;;;3.50;99.90;;;;;;5040846;28;20279;-66
2024/01/13 09:43:32;;;;;;;45.55;22.90;;;3.50;99.90;;;;;;5039531;28;20037;-64
2024/01/13 09:45:59;;;;;;;54.83;23.88;;;3.50;99.90;;;;;;5040274;28;20069;-65
2024/01/13 09:48:25;;;;;;;56.10;25.80;;;3.50;99.90;;;;;;5034579;28;20037;-64
2024/01/13 09:50:53;;;;;;;51.37;24.63;;;3.50;99.90;;;;;;5034674;28;20509;-64
2024/01/13 09:53:30;;;;;;;61.45;28.02;;;3.50;99.90;;;;;;5038626;28;20037;-64
2024/01/13 09:56:07;;;;;;;51.40;27.02;;;3.50;99.90;;;;;;5038566;28;20139;-65
2024/01/13 09:58:33;;;;;;;51.55;25.67;;;3.50;99.90;;;;;;5039606;28;20040;-65
2024/01/13 10:01:00;;;;;;;57.20;26.92;;;3.50;99.90;;;;;;5040728;28;20033;-64
2024/01/13 10:03:26;;;;;;;55.25;28.75;;;3.50;99.90;;;;;;5040320;28;20151;-64
2024/01/13 10:05:52;;;;;;;55.90;27.93;;;3.50;99.90;;;;;;5041561;28;20531;-64
2024/01/13 10:08:30;;;;;;;56.83;29.05;;;3.50;99.90;;;;;;5042966;28;20065;-66
2024/01/13 10:10:56;;;;;;;60.90;28.95;;;3.50;99.90;;;;;;5042969;28;20033;-66
2024/01/13 10:13:25;;;;;;;61.83;29.30;;;3.50;99.90;;;;;;5040303;28;20124;-64
2024/01/13 10:15:51;;;;;;;54.58;27.23;;;3.50;99.90;;;;;;5039299;28;20402;-66
2024/01/13 10:18:17;;;;;;;51.13;27.33;;;3.50;99.90;;;;;;5038819;28;20040;-65
2024/01/13 10:20:42;;;;;;;54.03;27.83;;;3.50;99.90;;;;;;5039711;28;20569;-65
2024/01/13 10:23:08;;;;;;;59.97;26.97;;;3.60;99.90;;;;;;5040530;28;20116;-64
2024/01/13 10:25:34;;;;;;;69.90;29.47;;;3.60;99.90;;;;;;5047216;28;20037;-64
2024/01/13 10:28:01;;;;;;;55.03;27.65;;;3.60;99.90;;;;;;5039775;28;20288;-64
2024/01/13 10:30:26;;;;;;;61.28;31.13;;;3.60;99.90;;;;;;5041935;28;20059;-64
2024/01/13 10:32:53;;;;;;;57.60;30.47;;;3.60;99.90;;;;;;5040153;28;20071;-64
2024/01/13 10:35:20;;;;;;;62.63;29.88;;;3.60;99.90;;;;;;5058775;28;20536;-64
2024/01/13 10:37:46;;;;;;;53.50;28.83;;;3.60;99.90;;;;;;5034477;28;20049;-65
2024/01/13 10:40:11;;;;;;;60.37;29.23;;;3.60;99.90;;;;;;5042743;28;20032;-65
2024/01/13 10:42:38;;;;;;;62.20;29.90;;;3.60;99.90;;;;;;5040300;28;20029;-65
2024/01/13 10:45:09;;;;;;;52.80;29.42;;;3.60;99.90;;;;;;5022869;28;20044;-63
2024/01/13 10:47:45;;;;;;;55.03;29.73;;;3.60;99.90;;;;;;5038091;28;20085;-64
2024/01/13 10:50:11;;;;;;;53.97;28.25;;;3.60;99.90;;;;;;5039266;28;20039;-63
2024/01/13 10:52:52;;;;;;;51.37;30.90;;;3.60;99.90;;;;;;5038381;28;20048;-65
2024/01/13 10:55:19;;;;;;;55.95;30.05;;;3.60;99.90;;;;;;5038427;28;20348;-65
2024/01/13 10:57:47;;;;;;;50.58;30.40;;;3.60;99.90;;;;;;5039612;28;20037;-64
2024/01/13 11:00:13;;;;;;;64.10;32.63;;;3.70;99.90;;;;;;5039048;28;20143;-65
2024/01/13 11:02:43;;;;;;;54.72;32.95;;;3.60;99.90;;;;;;5040789;28;20103;-64
2024/01/13 11:05:10;;;;;;;58.17;33.95;;;3.70;99.90;;;;;;5035533;28;20029;-65
2024/01/13 11:07:37;;;;;;;60.97;35.92;;;3.70;99.90;;;;;;5040103;28;20086;-65
2024/01/13 11:10:08;;;;;;;58.40;34.30;;;3.70;99.90;;;;;;5039742;28;20513;-64
2024/01/13 11:12:43;;;;;;;62.80;35.03;;;3.70;99.90;;;;;;5039366;28;20049;-64
2024/01/13 11:15:17;;;;;;;61.13;33.78;;;3.70;99.90;;;;;;5039101;28;20034;-65
2024/01/13 11:17:46;;;;;;;60.17;34.58;;;3.70;99.90;;;;;;5038284;28;20033;-65
2024/01/13 11:20:12;;;;;;;63.28;35.97;;;3.70;99.90;;;;;;5054568;28;20082;-65
2024/01/13 11:22:41;;;;;;;66.20;37.38;;;3.70;99.90;;;;;;5036367;28;20030;-65
2024/01/13 11:25:23;;;;;;;71.85;38.63;;;3.70;99.90;;;;;;5033480;28;20136;-64
2024/01/13 11:27:54;;;;;;;67.43;38.10;;;3.70;99.90;;;;;;5038591;28;20525;-65
2024/01/13 11:30:38;;;;;;;69.82;37.70;;;3.70;99.90;;;;;;5038309;28;20112;-64
2024/01/13 11:33:06;;;;;;;67.93;39.25;;;3.80;99.90;;;;;;5041741;28;20462;-64
2024/01/13 11:35:31;;;;;;;68.00;38.45;;;3.80;99.90;;;;;;5040233;28;20436;-65
2024/01/13 11:37:59;;;;;;;67.73;41.03;;;3.80;99.90;;;;;;5040362;28;20041;-65
2024/01/13 11:40:26;;;;;;;69.25;39.17;;;3.80;99.90;;;;;;5038947;28;20045;-65
2024/01/13 11:43:03;;;;;;;75.75;41.42;;;3.90;99.90;;;;;;5039328;28;20533;-65
2024/01/13 11:45:40;;;;;;;80.15;43.17;;;3.90;99.90;;;;;;5053393;28;20052;-65
2024/01/13 11:48:35;;;;;;;64.82;39.35;;;3.90;99.90;;;;;;5035567;28;20441;-65
2024/01/13 11:51:01;;;;;;;70.75;40.75;;;3.90;99.90;;;;;;5038172;28;20079;-64
2024/01/13 11:53:36;;;;;;;74.10;42.78;;;3.90;99.90;;;;;;5041979;28;20064;-65
2024/01/13 11:56:03;;;;;;;77.85;41.20;;;3.90;99.90;;;;;;5039240;28;20549;-65
2024/01/13 11:58:29;;;;;;;68.53;39.30;;;3.90;99.90;;;;;;5039567;28;20045;-65
2024/01/13 12:00:56;;;;;;;73.63;38.40;;;3.90;99.90;;;;;;5037408;28;20429;-64
2024/01/13 12:03:22;;;;;;;72.10;38.97;;;3.90;99.90;;;;;;5037065;28;20135;-67
2024/01/13 12:05:48;;;;;;;;;;;3.90;99.90;;;;;;5038051;28;20048;-64
2024/01/13 12:08:14;;;;;;;77.47;39.42;;;3.90;99.90;;;;;;5039574;28;19981;-64
2024/01/13 12:10:43;;;;;;;71.97;41.05;;;3.90;99.90;;;;;;5040914;28;20048;-65
2024/01/13 12:13:16;;;;;;;66.20;38.45;;;3.90;99.90;;;;;;5038993;28;20041;-64
2024/01/13 12:15:45;;;;;;;70.25;38.50;;;3.90;99.90;;;;;;5042537;28;20125;-64
2024/01/13 12:18:21;;;;;;;75.30;39.90;;;3.90;99.90;;;;;;5042763;28;20071;-65
2024/01/13 12:20:57;;;;;;;60.50;36.45;;;3.90;99.90;;;;;;5041296;28;20052;-65
2024/01/13 12:23:24;;;;;;;73.97;39.57;;;3.90;99.90;;;;;;5043000;28;20040;-65
2024/01/13 12:25:51;;;;;;;66.45;39.63;;;3.90;99.90;;;;;;5045519;28;20272;-65
2024/01/13 12:28:17;;;;;;;85.47;40.17;;;3.90;99.90;;;;;;5042085;28;20497;-63
2024/01/13 12:30:44;;;;;;;72.60;40.50;;;3.90;99.90;;;;;;5042145;28;20033;-65
2024/01/13 12:33:11;;;;;;;69.28;37.33;;;3.90;99.90;;;;;;5042487;28;20030;-64
2024/01/13 12:35:37;;;;;;;71.15;40.30;;;3.90;99.90;;;;;;5041171;28;20040;-65
2024/01/13 12:38:06;;;;;;;66.33;38.70;;;3.90;99.90;;;;;;5040068;28;20067;-65
2024/01/13 12:40:35;;;;;;;69.88;39.25;;;3.90;99.90;;;;;;5043873;28;20040;-65
2024/01/13 12:43:01;;;;;;;70.78;38.38;;;3.90;99.90;;;;;;5036180;28;20508;-65